createdAt,value
2019-04-25T00:02:21.286Z,2.20
2019-04-25T00:04:51.542Z,1.13
2019-04-25T00:07:21.670Z,4.67
2019-04-25T00:09:53.101Z,1.40
2019-04-25T00:12:22.300Z,1.73
2019-04-25T00:14:51.801Z,3.87
2019-04-25T00:17:21.448Z,2.73
2019-04-25T00:19:51.096Z,13.53
2019-04-25T00:22:25.022Z,8.43
2019-04-25T00:25:15.036Z,14.20
2019-04-25T00:27:34.512Z,1.23
2019-04-25T00:30:03.757Z,2.30
2019-04-25T00:32:33.249Z,2.17
2019-04-25T00:35:02.033Z,1.30
2019-04-25T00:37:32.329Z,2.90
2019-04-25T00:40:01.612Z,1.10
2019-04-25T00:42:32.000Z,1.00
2019-04-25T00:45:02.360Z,4.03
2019-04-25T00:47:31.733Z,1.47
2019-04-25T00:50:02.581Z,2.10
2019-04-25T00:52:31.935Z,2.85
2019-04-25T00:55:01.913Z,5.33
2019-04-25T00:57:32.067Z,1.30
2019-04-25T01:00:19.531Z,1.53
2019-04-25T01:02:53.477Z,1.30
2019-04-25T01:05:23.511Z,1.53
2019-04-25T01:07:53.298Z,3.93
2019-04-25T01:10:23.112Z,1.90
2019-04-25T01:12:53.158Z,1.00
2019-04-25T01:15:22.774Z,0.90
2019-04-25T01:17:53.204Z,1.50
2019-04-25T01:20:23.666Z,5.03
2019-04-25T01:22:54.326Z,1.20
2019-04-25T01:25:24.194Z,1.10
2019-04-25T01:27:53.899Z,2.60
2019-04-25T01:30:24.966Z,1.40
2019-04-25T01:32:54.547Z,1.10
2019-04-25T01:35:43.095Z,3.13
2019-04-25T01:38:14.221Z,3.70
2019-04-25T01:41:05.811Z,4.93
2019-04-25T01:43:43.669Z,10.23
2019-04-25T01:46:14.598Z,3.60
2019-04-25T01:48:43.373Z,1.93
2019-04-25T01:51:14.112Z,1.33
2019-04-25T01:53:44.142Z,3.67
2019-04-25T01:56:13.591Z,0.97
2019-04-25T01:58:43.770Z,1.20
2019-04-25T02:01:14.397Z,1.20
2019-04-25T02:03:44.242Z,2.30
2019-04-25T02:06:13.684Z,1.83
2019-04-25T02:08:44.035Z,1.20
2019-04-25T02:11:14.857Z,3.27
2019-04-25T02:13:44.055Z,2.47
2019-04-25T02:16:14.194Z,1.17
2019-04-25T02:18:43.579Z,3.93
2019-04-25T02:21:13.755Z,4.63
2019-04-25T02:23:44.185Z,1.40
2019-04-25T02:26:18.203Z,2.60
2019-04-25T02:28:43.796Z,1.67
2019-04-25T02:31:17.968Z,1.80
2019-04-25T02:33:44.313Z,1.10
2019-04-25T02:36:15.034Z,1.83
2019-04-25T02:38:44.154Z,1.17
2019-04-25T02:41:14.695Z,4.00
2019-04-25T02:43:45.106Z,2.07
2019-04-25T02:46:18.677Z,1.00
2019-04-25T02:49:09.107Z,1.20
2019-04-25T02:51:41.471Z,1.23
2019-04-25T02:54:10.055Z,1.40
2019-04-25T02:56:40.290Z,1.20
2019-04-25T02:59:09.339Z,1.15
2019-04-25T03:01:38.389Z,1.10
2019-04-25T03:04:10.737Z,9.55
2019-04-25T03:06:37.744Z,2.35
2019-04-25T03:09:09.805Z,1.20
2019-04-25T03:11:38.860Z,2.20
2019-04-25T03:14:09.986Z,2.70
2019-04-25T03:16:38.079Z,5.33
2019-04-25T03:19:20.500Z,1.77
2019-04-25T03:21:50.892Z,1.10
2019-04-25T03:24:19.828Z,2.27
2019-04-25T03:26:48.511Z,2.20
2019-04-25T03:29:17.271Z,1.70
2019-04-25T03:31:46.007Z,2.10
2019-04-25T03:34:20.317Z,1.40
2019-04-25T03:36:45.069Z,3.20
2019-04-25T03:39:14.834Z,2.30
2019-04-25T03:41:45.509Z,2.77
2019-04-25T03:44:14.790Z,3.40
2019-04-25T03:46:44.162Z,1.33
2019-04-25T03:49:13.917Z,3.50
2019-04-25T03:51:43.851Z,2.80
2019-04-25T03:54:14.293Z,2.30
2019-04-25T03:56:51.867Z,3.47
2019-04-25T03:59:14.610Z,1.40
2019-04-25T04:01:44.355Z,1.60
2019-04-25T04:04:16.336Z,2.90
2019-04-25T04:06:45.124Z,1.37
2019-04-25T04:09:14.294Z,1.90
2019-04-25T04:11:43.974Z,3.53
2019-04-25T04:14:14.490Z,1.95
2019-04-25T04:16:44.723Z,2.75
2019-04-25T04:19:15.586Z,2.33
2019-04-25T04:21:53.222Z,6.73
2019-04-25T04:24:25.795Z,1.77
2019-04-25T04:27:03.710Z,1.87
2019-04-25T04:29:33.084Z,3.55
2019-04-25T04:32:03.070Z,3.10
2019-04-25T04:34:33.634Z,6.50
2019-04-25T04:37:03.608Z,1.47
2019-04-25T04:39:33.880Z,2.33
2019-04-25T04:42:03.840Z,2.80
2019-04-25T04:44:34.269Z,12.30
2019-04-25T04:47:03.957Z,14.33
2019-04-25T04:49:34.108Z,9.93
2019-04-25T04:52:04.489Z,8.23
2019-04-25T04:54:34.445Z,15.25
2019-04-25T04:57:16.637Z,6.80
2019-04-25T04:59:34.555Z,5.83
2019-04-25T05:02:10.676Z,3.70
2019-04-25T05:04:54.033Z,5.93
2019-04-25T05:07:25.332Z,5.80
2019-04-25T05:09:54.329Z,3.77
2019-04-25T05:12:24.093Z,2.40
2019-04-25T05:14:53.682Z,9.80
2019-04-25T05:17:23.713Z,2.70
2019-04-25T05:19:53.311Z,3.60
2019-04-25T05:22:24.288Z,4.93
2019-04-25T05:24:53.576Z,3.90
2019-04-25T05:27:37.549Z,2.07
2019-04-25T05:29:53.990Z,20.17
2019-04-25T05:32:25.116Z,3.13
2019-04-25T05:34:53.300Z,13.33
2019-04-25T05:37:24.105Z,3.23
2019-04-25T05:39:53.622Z,4.40
2019-04-25T05:42:26.716Z,2.50
2019-04-25T05:44:57.035Z,2.97
2019-04-25T05:47:27.042Z,5.80
2019-04-25T05:49:55.929Z,1.60
2019-04-25T05:52:25.241Z,7.40
2019-04-25T05:54:54.926Z,4.43
2019-04-25T05:57:24.644Z,5.17
2019-04-25T05:59:53.763Z,8.40
2019-04-25T06:02:24.486Z,5.97
2019-04-25T06:04:53.519Z,2.50
2019-04-25T06:07:24.613Z,2.20
2019-04-25T06:09:57.331Z,5.70
2019-04-25T06:12:28.026Z,6.43
2019-04-25T06:14:56.781Z,2.20
2019-04-25T06:17:36.045Z,1.60
2019-04-25T06:20:09.208Z,6.73
2019-04-25T06:22:59.040Z,2.30
2019-04-25T06:25:32.943Z,2.65
2019-04-25T06:28:00.306Z,5.00
2019-04-25T06:30:29.712Z,7.53
2019-04-25T06:32:58.604Z,17.60
2019-04-25T06:35:27.616Z,7.97
2019-04-25T06:37:57.663Z,8.47
2019-04-25T06:42:55.961Z,3.40
2019-04-25T06:47:57.110Z,2.80
2019-04-25T06:50:27.073Z,4.63
2019-04-25T06:52:55.879Z,4.20
2019-04-25T06:55:26.399Z,4.23
2019-04-25T06:57:55.832Z,4.40
2019-04-25T07:00:27.740Z,4.73
2019-04-25T07:02:55.141Z,4.30
2019-04-25T07:05:30.493Z,2.03
2019-04-25T07:07:54.154Z,2.87
2019-04-25T07:10:24.162Z,2.40
2019-04-25T07:12:54.370Z,2.80
2019-04-25T07:15:25.629Z,1.50
2019-04-25T07:17:54.209Z,2.80
2019-04-25T07:20:25.696Z,4.03
2019-04-25T07:22:53.753Z,1.60
2019-04-25T07:25:26.309Z,1.80
2019-04-25T07:28:23.835Z,2.20
2019-04-25T07:30:59.063Z,3.20
2019-04-25T07:33:35.929Z,3.13
2019-04-25T07:36:04.928Z,10.77
2019-04-25T07:38:34.697Z,3.50
2019-04-25T07:41:03.867Z,3.70
2019-04-25T07:43:34.139Z,3.40
2019-04-25T07:46:03.357Z,2.93
2019-04-25T07:48:36.596Z,4.20
2019-04-25T07:51:05.745Z,3.97
2019-04-25T07:53:35.906Z,9.93
2019-04-25T07:56:05.223Z,3.30
2019-04-25T07:58:49.204Z,2.67
2019-04-25T08:01:11.796Z,5.03
2019-04-25T08:03:40.412Z,1.53
2019-04-25T08:06:08.994Z,4.10
2019-04-25T08:08:38.124Z,3.27
2019-04-25T08:11:09.022Z,5.10
2019-04-25T08:13:39.896Z,5.13
2019-04-25T08:16:25.978Z,3.20
2019-04-25T08:18:54.570Z,2.80
2019-04-25T08:21:23.999Z,2.07
2019-04-25T08:23:53.349Z,4.77
2019-04-25T08:26:23.663Z,6.63
2019-04-25T08:28:57.487Z,2.77
2019-04-25T08:31:23.508Z,2.80
2019-04-25T08:33:53.602Z,4.60
2019-04-25T08:36:23.394Z,3.17
2019-04-25T08:38:53.449Z,1.53
2019-04-25T08:41:23.916Z,4.93
2019-04-25T08:43:54.443Z,2.90
2019-04-25T08:46:25.252Z,2.20
2019-04-25T08:49:02.367Z,3.70
2019-04-25T08:51:40.099Z,2.40
2019-04-25T08:54:25.805Z,2.93
2019-04-25T08:56:56.190Z,1.63
2019-04-25T08:59:42.549Z,3.33
2019-04-25T09:02:10.537Z,2.73
2019-04-25T09:04:59.940Z,1.23
2019-04-25T09:07:28.829Z,5.07
2019-04-25T09:09:58.273Z,3.53
2019-04-25T09:12:27.149Z,3.83
2019-04-25T09:14:55.838Z,4.07
2019-04-25T09:17:24.656Z,2.50
2019-04-25T09:19:54.207Z,1.77
2019-04-25T09:22:24.222Z,1.97
2019-04-25T09:24:53.994Z,8.77
2019-04-25T09:27:25.637Z,5.97
2019-04-25T09:29:54.277Z,8.63
2019-04-25T09:32:23.835Z,2.73
2019-04-25T09:34:54.179Z,2.83
2019-04-25T09:37:24.619Z,2.93
2019-04-25T09:40:00.901Z,3.57
2019-04-25T09:42:29.525Z,3.60
2019-04-25T09:45:18.910Z,3.83
2019-04-25T09:47:49.183Z,2.33
2019-04-25T09:50:33.861Z,0.80
2019-04-25T09:53:04.505Z,1.20
2019-04-25T09:55:37.857Z,7.60
2019-04-25T09:58:15.211Z,3.93
2019-04-25T10:00:48.756Z,2.13
2019-04-25T10:03:17.567Z,2.00
2019-04-25T10:05:46.858Z,2.30
2019-04-25T10:08:15.767Z,2.40
2019-04-25T10:10:44.623Z,1.30
2019-04-25T10:13:13.545Z,2.37
2019-04-25T10:16:08.648Z,4.57
2019-04-25T10:18:37.896Z,2.27
2019-04-25T10:21:09.908Z,3.23
2019-04-25T10:23:39.826Z,2.30
2019-04-25T10:26:10.444Z,1.47
2019-04-25T10:28:41.549Z,1.70
2019-04-25T10:31:11.199Z,3.80
2019-04-25T10:33:39.990Z,3.10
2019-04-25T10:36:11.015Z,2.17
2019-04-25T10:38:40.575Z,10.15
2019-04-25T10:41:09.890Z,2.40
2019-04-25T10:43:39.517Z,4.63
2019-04-25T10:46:09.214Z,2.77
2019-04-25T10:48:39.918Z,3.90
2019-04-25T10:51:09.199Z,2.60
2019-04-25T10:53:37.863Z,1.00
2019-04-25T10:56:06.896Z,0.90
2019-04-25T10:58:35.834Z,1.30
2019-04-25T11:01:05.464Z,2.37
2019-04-25T11:03:39.799Z,4.50
2019-04-25T11:06:09.195Z,1.35
2019-04-25T11:08:37.711Z,3.70
2019-04-25T11:11:06.719Z,3.70
2019-04-25T11:13:36.032Z,2.93
2019-04-25T11:16:06.357Z,4.30
2019-04-25T11:18:34.983Z,1.73
2019-04-25T11:21:05.882Z,1.43
2019-04-25T11:23:36.234Z,2.30
2019-04-25T11:26:05.189Z,3.03
2019-04-25T11:28:34.505Z,8.50
2019-04-25T11:31:05.248Z,1.70
2019-04-25T11:33:35.057Z,2.90
2019-04-25T11:36:04.253Z,8.80
2019-04-25T11:38:37.629Z,4.40
2019-04-25T11:41:10.588Z,4.43
2019-04-25T11:43:39.338Z,3.73
2019-04-25T11:46:07.864Z,1.30
2019-04-25T11:48:36.554Z,1.57
2019-04-25T11:51:06.154Z,2.73
2019-04-25T11:53:35.228Z,2.80
2019-04-25T11:56:03.952Z,1.80
2019-04-25T11:58:32.997Z,2.93
2019-04-25T12:01:03.404Z,4.80
2019-04-25T12:03:33.624Z,3.15
2019-04-25T12:06:02.918Z,3.87
2019-04-25T12:08:31.632Z,2.60
2019-04-25T12:11:00.387Z,1.40
2019-04-25T12:13:28.890Z,2.40
2019-04-25T12:15:58.337Z,1.97
2019-04-25T12:18:27.218Z,1.93
2019-04-25T12:20:57.983Z,1.47
2019-04-25T12:23:26.540Z,2.97
2019-04-25T12:25:56.049Z,2.10
2019-04-25T12:28:24.643Z,6.80
2019-04-25T12:30:55.365Z,3.97
2019-04-25T12:33:24.489Z,2.03
2019-04-25T12:35:56.881Z,4.47
2019-04-25T12:38:25.916Z,1.20
2019-04-25T12:40:55.333Z,3.07
2019-04-25T12:43:26.167Z,6.50
2019-04-25T12:45:56.948Z,6.17
2019-04-25T12:48:25.938Z,4.73
2019-04-25T12:50:55.436Z,2.40
2019-04-25T12:53:25.426Z,6.57
2019-04-25T12:55:54.943Z,1.10
2019-04-25T12:58:23.805Z,7.33
2019-04-25T13:00:55.059Z,4.30
2019-04-25T13:03:24.124Z,3.20
2019-04-25T13:05:52.872Z,3.50
2019-04-25T13:08:21.335Z,4.45
2019-04-25T13:10:49.961Z,2.80
2019-04-25T13:15:46.324Z,1.60
2019-04-25T13:18:15.050Z,5.37
2019-04-25T13:20:43.869Z,4.30
2019-04-25T13:23:14.339Z,3.37
2019-04-25T13:25:44.159Z,3.80
2019-04-25T13:28:14.574Z,1.60
2019-04-25T13:30:45.168Z,4.33
2019-04-25T13:33:33.473Z,8.40
2019-04-25T13:36:12.994Z,5.67
2019-04-25T13:38:41.584Z,4.03
2019-04-25T13:41:10.672Z,3.50
2019-04-25T13:58:32.161Z,3.90
2019-04-25T14:08:27.434Z,4.10
2019-04-25T14:10:56.065Z,10.33
2019-04-25T14:18:29.306Z,2.90
2019-04-25T14:21:05.484Z,3.03
2019-04-25T14:23:34.565Z,12.75
2019-04-25T14:35:59.842Z,12.33
2019-04-25T14:43:24.891Z,8.90
2019-04-25T15:16:00.763Z,8.50
2019-04-25T15:25:54.205Z,7.13
2019-04-25T15:51:04.285Z,6.40
2019-04-25T15:53:32.968Z,9.37
2019-04-25T15:56:01.569Z,7.77
2019-04-25T15:58:30.254Z,8.60
2019-04-25T16:00:58.943Z,5.85
2019-04-25T16:03:28.312Z,16.93
2019-04-25T16:05:57.609Z,8.33
2019-04-25T16:08:26.617Z,8.30
2019-04-25T16:10:56.218Z,10.40
2019-04-25T16:13:25.929Z,7.30
2019-04-25T16:15:55.543Z,10.80
2019-04-25T16:18:24.236Z,9.60
2019-04-25T16:20:53.069Z,14.30
2019-04-25T16:23:21.738Z,9.50
2019-04-25T16:25:50.564Z,10.37
2019-04-25T16:28:19.158Z,9.80
2019-04-25T16:30:47.862Z,19.73
2019-04-25T16:33:16.625Z,12.37
2019-04-25T16:35:45.605Z,5.87
2019-04-25T16:38:14.896Z,11.00
2019-04-25T16:40:43.719Z,16.27
2019-04-25T16:43:14.051Z,10.67
2019-04-25T16:45:42.738Z,5.60
2019-04-25T16:48:11.288Z,8.67
2019-04-25T16:50:40.023Z,18.13
2019-04-25T16:53:09.363Z,7.90
2019-04-25T16:55:38.798Z,14.60
2019-04-25T16:58:07.772Z,6.90
2019-04-25T17:00:47.751Z,4.40
2019-04-25T17:03:17.511Z,8.97
2019-04-25T17:05:46.207Z,5.80
2019-04-25T17:08:15.301Z,6.37
2019-04-25T17:10:44.438Z,10.30
2019-04-25T17:13:13.261Z,17.80
2019-04-25T17:15:58.776Z,9.80
2019-04-25T17:18:29.718Z,27.00
2019-04-25T17:21:04.717Z,27.10
2019-04-25T17:23:34.480Z,25.37
2019-04-25T17:26:03.639Z,14.57
2019-04-25T17:28:34.928Z,11.00
2019-04-25T17:31:10.733Z,10.20
2019-04-25T17:33:41.538Z,16.40
2019-04-25T17:36:15.857Z,8.87
2019-04-25T17:38:49.193Z,9.50
2019-04-25T17:41:17.907Z,22.03
2019-04-25T17:43:46.663Z,8.07
2019-04-25T17:46:17.295Z,8.10
2019-04-25T17:48:46.782Z,8.70
2019-04-25T17:51:15.835Z,16.90
2019-04-25T17:53:44.511Z,16.97
2019-04-25T17:56:14.123Z,24.17
2019-04-25T17:58:44.201Z,23.70
2019-04-25T18:01:14.611Z,8.97
2019-04-25T18:03:44.026Z,9.57
2019-04-25T18:06:12.888Z,20.57
2019-04-25T18:08:41.928Z,18.53
2019-04-25T18:11:10.866Z,24.80
2019-04-25T18:13:40.216Z,32.90
2019-04-25T18:16:20.515Z,21.70
2019-04-25T18:19:08.285Z,26.03
2019-04-25T18:21:37.122Z,12.73
2019-04-25T18:24:13.627Z,14.60
2019-04-25T18:26:52.822Z,11.93
2019-04-25T18:29:27.737Z,9.03
2019-04-25T18:31:56.600Z,7.80
2019-04-25T18:34:32.957Z,13.10
2019-04-25T18:37:06.231Z,17.17
2019-04-25T18:39:40.169Z,14.20
2019-04-25T18:42:14.240Z,14.97
2019-04-25T18:44:44.061Z,8.77
2019-04-25T18:47:13.272Z,12.40
2019-04-25T18:49:48.553Z,13.33
2019-04-25T18:52:37.197Z,12.43
2019-04-25T18:55:10.563Z,14.73
2019-04-25T18:57:45.852Z,9.93
2019-04-25T19:00:20.245Z,13.83
2019-04-25T19:02:52.145Z,15.83
2019-04-25T19:05:39.521Z,14.60
2019-04-25T19:08:09.333Z,12.43
2019-04-25T19:10:39.580Z,14.83
2019-04-25T19:13:12.883Z,16.27
2019-04-25T19:15:41.316Z,14.87
2019-04-25T19:18:10.801Z,21.60
2019-04-25T19:20:41.712Z,14.20
2019-04-25T19:23:11.451Z,19.53
2019-04-25T19:25:41.979Z,17.03
2019-04-25T19:28:11.428Z,12.63
2019-04-25T19:30:41.439Z,11.10
2019-04-25T19:33:11.888Z,13.55
2019-04-25T19:38:11.547Z,28.55
2019-04-25T19:40:45.963Z,10.30
2019-04-25T19:43:18.303Z,17.30
2019-04-25T19:45:47.822Z,17.30
2019-04-25T19:48:18.555Z,11.37
2019-04-25T19:50:48.636Z,10.80
2019-04-25T19:53:19.463Z,10.83
2019-04-25T19:55:49.696Z,17.10
2019-04-25T19:58:19.052Z,8.63
2019-04-25T20:00:50.933Z,19.10
2019-04-25T20:03:22.675Z,11.67
2019-04-25T20:05:54.030Z,9.80
2019-04-25T20:11:13.868Z,8.60
2019-04-25T20:16:14.975Z,10.00
2019-04-25T20:18:45.696Z,17.70
2019-04-25T20:21:16.843Z,19.60
2019-04-25T20:26:20.942Z,10.10
2019-04-25T20:28:51.235Z,14.03
2019-04-25T20:31:22.045Z,15.70
2019-04-25T20:34:03.436Z,17.13
2019-04-25T20:36:28.713Z,13.93
2019-04-25T20:39:00.620Z,15.00
2019-04-25T20:41:30.426Z,13.00
2019-04-25T20:44:03.143Z,20.37
2019-04-25T20:46:32.187Z,13.30
2019-04-25T20:49:02.754Z,13.47
2019-04-25T20:51:33.500Z,11.40
2019-04-25T20:54:02.216Z,12.83
2019-04-25T20:56:33.831Z,15.77
2019-04-25T20:59:02.789Z,15.33
2019-04-25T21:01:34.991Z,12.20
2019-04-25T21:04:12.947Z,12.60
2019-04-25T21:06:36.575Z,17.03
2019-04-25T21:09:07.231Z,14.43
2019-04-25T21:11:35.948Z,16.23
2019-04-25T21:14:06.580Z,12.77
2019-04-25T21:16:50.411Z,17.43
2019-04-25T21:19:20.711Z,9.27
2019-04-25T21:21:49.523Z,20.83
2019-04-25T21:24:19.140Z,8.23
2019-04-25T21:26:47.770Z,14.03
2019-04-25T21:29:16.678Z,10.73
2019-04-25T21:31:45.358Z,11.80
2019-04-25T21:34:25.377Z,16.63
2019-04-25T21:36:44.278Z,13.47
2019-04-25T21:39:15.146Z,18.93
2019-04-25T21:42:02.214Z,20.57
2019-04-25T21:44:31.286Z,14.03
2019-04-25T21:47:00.596Z,13.40
2019-04-25T21:49:29.613Z,16.73
2019-04-25T21:51:59.061Z,12.17
2019-04-25T21:54:27.769Z,11.90
2019-04-25T21:56:57.447Z,10.63
2019-04-25T21:59:26.419Z,10.40
2019-04-25T22:01:56.295Z,10.60
2019-04-25T22:04:37.881Z,9.93
2019-04-25T22:06:56.811Z,15.80
2019-04-25T22:09:26.395Z,21.03
2019-04-25T22:11:57.220Z,20.47
2019-04-25T22:14:26.629Z,11.97
2019-04-25T22:16:55.709Z,15.70
2019-04-25T22:19:25.736Z,13.77
2019-04-25T22:21:54.706Z,25.67
2019-04-25T22:24:23.502Z,15.37
2019-04-25T22:26:53.741Z,8.70
2019-04-25T22:29:22.942Z,14.27
2019-04-25T22:31:59.580Z,15.57
2019-04-25T22:34:52.604Z,33.00
2019-04-25T22:37:19.161Z,11.97
2019-04-25T22:39:48.061Z,12.83
2019-04-25T22:42:16.918Z,13.10
2019-04-25T22:44:45.748Z,17.63
2019-04-25T22:47:17.388Z,17.93
2019-04-25T22:49:44.817Z,16.93
2019-04-25T22:52:13.676Z,12.70
2019-04-25T22:54:42.608Z,16.93
2019-04-25T22:57:12.600Z,14.10
2019-04-25T22:59:41.768Z,16.90
2019-04-25T23:02:12.050Z,11.40
2019-04-25T23:04:42.747Z,10.90
2019-04-25T23:07:12.292Z,12.90
2019-04-25T23:09:41.276Z,14.40
2019-04-25T23:12:10.585Z,14.40
2019-04-25T23:14:39.598Z,12.33
2019-04-25T23:17:09.377Z,6.87
2019-04-25T23:19:38.033Z,18.50
2019-04-25T23:22:07.414Z,10.90
2019-04-25T23:24:38.478Z,16.43
2019-04-25T23:27:27.386Z,7.50
2019-04-25T23:29:56.033Z,16.63
2019-04-25T23:32:24.957Z,29.37
2019-04-25T23:34:53.814Z,11.80
2019-04-25T23:37:23.028Z,17.63
2019-04-25T23:39:51.627Z,10.30
2019-04-25T23:42:20.308Z,13.77
2019-04-25T23:44:49.166Z,12.10
2019-04-25T23:47:17.889Z,12.40
2019-04-25T23:49:48.210Z,12.90
2019-04-25T23:52:17.676Z,14.83
2019-04-25T23:54:46.383Z,12.73
2019-04-25T23:57:15.596Z,17.50
2019-04-25T23:59:44.359Z,21.33
